BAW52P EGCC-EGPH
Flight info
| Callsign | BAW52P |
|---|---|
| Flight time | 0h 37m |
| Altitude | 24000 |
| Route | POL N601 INPIP |
| Aircraft | A320/M-SDE3FGHIRWY/LB1 |
Departure
| Time | 2026-04-23 10:45 |
|---|---|
| Airport | Manchester Airport (EGCC) |
Arrival
| Time | 2026-04-23 11:22 |
|---|---|
| Airport | Edinburgh Airport (EGPH) |
| Time | Latitude | Longitude | Altitude | Speed | Heading |
|---|---|---|---|---|---|
| 2026-04-23 10:15 | 53.36920 | -2.28743 | 248 ft | 0 kts | 135° |
| 2026-04-23 10:34 | 53.36922 | -2.28747 | 247 ft | 2 kts | 135° |
| 2026-04-23 10:34 | 53.36936 | -2.28770 | 247 ft | 3 kts | 135° |
| 2026-04-23 10:35 | 53.36947 | -2.28789 | 247 ft | 3 kts | 171° |
| 2026-04-23 10:35 | 53.36961 | -2.28783 | 247 ft | 3 kts | 221° |
| 2026-04-23 10:35 | 53.36967 | -2.28773 | 247 ft | 0 kts | 225° |
| 2026-04-23 10:35 | 53.36959 | -2.28788 | 247 ft | 2 kts | 225° |
| 2026-04-23 10:36 | 53.36953 | -2.28796 | 247 ft | 0 kts | 225° |
| 2026-04-23 10:37 | 53.36953 | -2.28797 | 247 ft | 0 kts | 225° |
| 2026-04-23 10:38 | 53.36952 | -2.28798 | 247 ft | 2 kts | 225° |
| 2026-04-23 10:38 | 53.36921 | -2.28849 | 247 ft | 11 kts | 225° |
| 2026-04-23 10:38 | 53.36844 | -2.28977 | 247 ft | 19 kts | 225° |
| 2026-04-23 10:38 | 53.36750 | -2.29034 | 247 ft | 11 kts | 168° |
| 2026-04-23 10:39 | 53.36689 | -2.28946 | 247 ft | 13 kts | 133° |
| 2026-04-23 10:39 | 53.36611 | -2.28867 | 247 ft | 14 kts | 131° |
| 2026-04-23 10:39 | 53.36556 | -2.28718 | 247 ft | 16 kts | 128° |
| 2026-04-23 10:39 | 53.36471 | -2.28574 | 247 ft | 19 kts | 135° |
| 2026-04-23 10:40 | 53.36357 | -2.28466 | 247 ft | 20 kts | 163° |
| 2026-04-23 10:40 | 53.36248 | -2.28307 | 247 ft | 22 kts | 133° |
| 2026-04-23 10:40 | 53.36135 | -2.28116 | 247 ft | 24 kts | 135° |
| 2026-04-23 10:40 | 53.36012 | -2.27909 | 247 ft | 26 kts | 135° |
| 2026-04-23 10:41 | 53.35840 | -2.27858 | 247 ft | 27 kts | 186° |
| 2026-04-23 10:41 | 53.35643 | -2.27892 | 247 ft | 30 kts | 185° |
| 2026-04-23 10:41 | 53.35437 | -2.27953 | 244 ft | 29 kts | 222° |
| 2026-04-23 10:41 | 53.35290 | -2.28189 | 236 ft | 32 kts | 224° |
| 2026-04-23 10:42 | 53.35140 | -2.28492 | 230 ft | 36 kts | 231° |
| 2026-04-23 10:42 | 53.34979 | -2.28797 | 230 ft | 35 kts | 223° |
| 2026-04-23 10:42 | 53.34849 | -2.29031 | 219 ft | 27 kts | 227° |
| 2026-04-23 10:42 | 53.34815 | -2.29070 | 217 ft | 0 kts | 195° |
| 2026-04-23 10:43 | 53.34814 | -2.29071 | 217 ft | 1 kts | 195° |
| 2026-04-23 10:43 | 53.34778 | -2.29077 | 217 ft | 9 kts | 178° |
| 2026-04-23 10:43 | 53.34685 | -2.29012 | 222 ft | 19 kts | 145° |
| 2026-04-23 10:43 | 53.34703 | -2.28883 | 222 ft | 10 kts | 49° |
| 2026-04-23 10:44 | 53.34723 | -2.28842 | 222 ft | 15 kts | 52° |
| 2026-04-23 10:44 | 53.34941 | -2.28389 | 238 ft | 83 kts | 51° |
| 2026-04-23 10:44 | 53.35421 | -2.27398 | 259 ft | 133 kts | 51° |
| 2026-04-23 10:44 | 53.36065 | -2.26047 | 582 ft | 150 kts | 52° |
| 2026-04-23 10:45 | 53.36702 | -2.24662 | 1206 ft | 155 kts | 54° |
| 2026-04-23 10:45 | 53.37305 | -2.23121 | 1769 ft | 161 kts | 59° |
| 2026-04-23 10:45 | 53.37982 | -2.21563 | 2303 ft | 170 kts | 56° |
| 2026-04-23 10:45 | 53.38767 | -2.19934 | 2583 ft | 191 kts | 55° |
| 2026-04-23 10:46 | 53.39654 | -2.18092 | 2834 ft | 216 kts | 54° |
| 2026-04-23 10:46 | 53.40648 | -2.16015 | 3225 ft | 240 kts | 54° |
| 2026-04-23 10:46 | 53.41732 | -2.13728 | 3797 ft | 257 kts | 54° |
| 2026-04-23 10:46 | 53.42862 | -2.11353 | 4639 ft | 264 kts | 52° |
| 2026-04-23 10:47 | 53.44368 | -2.09533 | 5496 ft | 277 kts | 20° |
| 2026-04-23 10:47 | 53.46304 | -2.09264 | 6336 ft | 286 kts | 355° |
| 2026-04-23 10:47 | 53.48298 | -2.09632 | 7197 ft | 290 kts | 355° |
| 2026-04-23 10:47 | 53.50313 | -2.09999 | 8036 ft | 293 kts | 354° |
| 2026-04-23 10:48 | 53.52359 | -2.10218 | 8863 ft | 296 kts | 0° |
| 2026-04-23 10:48 | 53.54430 | -2.10093 | 9697 ft | 300 kts | 3° |
| 2026-04-23 10:48 | 53.56526 | -2.09951 | 10504 ft | 303 kts | 1° |
| 2026-04-23 10:48 | 53.58688 | -2.09890 | 10886 ft | 322 kts | 0° |
| 2026-04-23 10:49 | 53.61010 | -2.09896 | 11069 ft | 345 kts | 359° |
| 2026-04-23 10:49 | 53.63483 | -2.09949 | 11322 ft | 364 kts | 359° |
| 2026-04-23 10:49 | 53.66039 | -2.10032 | 11896 ft | 370 kts | 358° |
| 2026-04-23 10:49 | 53.68630 | -2.10125 | 12538 ft | 375 kts | 358° |
| 2026-04-23 10:50 | 53.71258 | -2.10218 | 13176 ft | 379 kts | 358° |
| 2026-04-23 10:50 | 53.73897 | -2.10591 | 13828 ft | 383 kts | 348° |
| 2026-04-23 10:50 | 53.76479 | -2.11760 | 14455 ft | 386 kts | 338° |
| 2026-04-23 10:50 | 53.78973 | -2.13456 | 15053 ft | 388 kts | 336° |
| 2026-04-23 10:51 | 53.81485 | -2.15178 | 15650 ft | 391 kts | 336° |
| 2026-04-23 10:51 | 53.84017 | -2.16904 | 16233 ft | 394 kts | 337° |
| 2026-04-23 10:51 | 53.86575 | -2.18643 | 16777 ft | 397 kts | 338° |
| 2026-04-23 10:51 | 53.89140 | -2.20392 | 17458 ft | 398 kts | 338° |
| 2026-04-23 10:52 | 53.91705 | -2.22145 | 18160 ft | 399 kts | 339° |
| 2026-04-23 10:52 | 53.94286 | -2.23915 | 18820 ft | 400 kts | 339° |
| 2026-04-23 10:52 | 53.96872 | -2.25696 | 19418 ft | 402 kts | 339° |
| 2026-04-23 10:52 | 53.99474 | -2.27490 | 20028 ft | 404 kts | 338° |
| 2026-04-23 10:53 | 54.02082 | -2.29286 | 20629 ft | 406 kts | 339° |
| 2026-04-23 10:53 | 54.04703 | -2.31095 | 21223 ft | 407 kts | 339° |
| 2026-04-23 10:53 | 54.07296 | -2.32891 | 21769 ft | 409 kts | 338° |
| 2026-04-23 10:53 | 54.09972 | -2.34747 | 22298 ft | 411 kts | 338° |
| 2026-04-23 10:54 | 54.12588 | -2.36563 | 22786 ft | 412 kts | 338° |
| 2026-04-23 10:54 | 54.15252 | -2.38415 | 23298 ft | 414 kts | 338° |
| 2026-04-23 10:54 | 54.17921 | -2.40269 | 23820 ft | 415 kts | 338° |
| 2026-04-23 10:54 | 54.20601 | -2.42129 | 24249 ft | 417 kts | 338° |
| 2026-04-23 10:55 | 54.23299 | -2.44005 | 24466 ft | 419 kts | 338° |
| 2026-04-23 10:55 | 54.26014 | -2.45897 | 24523 ft | 427 kts | 338° |
| 2026-04-23 10:55 | 54.28792 | -2.47832 | 24529 ft | 434 kts | 338° |
| 2026-04-23 10:55 | 54.31596 | -2.49786 | 24530 ft | 437 kts | 338° |
| 2026-04-23 10:56 | 54.34423 | -2.51762 | 24530 ft | 438 kts | 338° |
| 2026-04-23 10:56 | 54.37243 | -2.53739 | 24523 ft | 437 kts | 338° |
| 2026-04-23 10:56 | 54.40058 | -2.55717 | 24524 ft | 438 kts | 338° |
| 2026-04-23 10:56 | 54.42874 | -2.57698 | 24518 ft | 438 kts | 338° |
| 2026-04-23 10:57 | 54.45699 | -2.59689 | 24518 ft | 438 kts | 338° |
| 2026-04-23 10:57 | 54.48514 | -2.61678 | 24521 ft | 437 kts | 338° |
| 2026-04-23 10:57 | 54.51331 | -2.63666 | 24518 ft | 438 kts | 338° |
| 2026-04-23 10:57 | 54.54150 | -2.65659 | 24516 ft | 439 kts | 338° |
| 2026-04-23 10:58 | 54.56972 | -2.67660 | 24513 ft | 439 kts | 338° |
| 2026-04-23 10:58 | 54.59797 | -2.69667 | 24515 ft | 439 kts | 338° |
| 2026-04-23 10:58 | 54.62624 | -2.71678 | 24502 ft | 440 kts | 338° |
| 2026-04-23 10:58 | 54.65460 | -2.73699 | 24496 ft | 442 kts | 338° |
| 2026-04-23 10:59 | 54.68305 | -2.75727 | 24495 ft | 443 kts | 338° |
| 2026-04-23 10:59 | 54.71156 | -2.77758 | 24496 ft | 443 kts | 338° |
| 2026-04-23 10:59 | 54.74008 | -2.79791 | 24502 ft | 440 kts | 337° |
| 2026-04-23 10:59 | 54.76801 | -2.81790 | 24517 ft | 431 kts | 337° |
| 2026-04-23 11:00 | 54.79560 | -2.83776 | 24516 ft | 429 kts | 337° |
| 2026-04-23 11:00 | 54.82311 | -2.85761 | 24523 ft | 428 kts | 337° |
| 2026-04-23 11:00 | 54.85068 | -2.87777 | 24529 ft | 433 kts | 337° |
| 2026-04-23 11:00 | 54.87885 | -2.89822 | 24525 ft | 443 kts | 337° |
| 2026-04-23 11:01 | 54.90745 | -2.91880 | 24523 ft | 446 kts | 337° |
| 2026-04-23 11:01 | 54.93592 | -2.93919 | 24366 ft | 436 kts | 338° |
| 2026-04-23 11:01 | 54.96353 | -2.95897 | 24131 ft | 422 kts | 338° |
| 2026-04-23 11:01 | 54.99028 | -2.97824 | 23856 ft | 410 kts | 337° |
| 2026-04-23 11:02 | 55.01633 | -2.99712 | 23591 ft | 401 kts | 337° |
| 2026-04-23 11:02 | 55.04183 | -3.01568 | 23415 ft | 391 kts | 337° |
| 2026-04-23 11:02 | 55.06599 | -3.03332 | 23240 ft | 371 kts | 337° |
| 2026-04-23 11:02 | 55.08967 | -3.05061 | 22704 ft | 359 kts | 336° |
| 2026-04-23 11:03 | 55.11254 | -3.06733 | 22018 ft | 353 kts | 336° |
| 2026-04-23 11:03 | 55.13480 | -3.08362 | 21309 ft | 350 kts | 336° |
| 2026-04-23 11:03 | 55.15712 | -3.09996 | 20615 ft | 346 kts | 336° |
| 2026-04-23 11:03 | 55.17916 | -3.11614 | 19941 ft | 342 kts | 336° |
| 2026-04-23 11:04 | 55.20102 | -3.13213 | 19289 ft | 338 kts | 335° |
| 2026-04-23 11:04 | 55.22266 | -3.14797 | 18600 ft | 336 kts | 335° |
| 2026-04-23 11:04 | 55.24401 | -3.16366 | 18028 ft | 329 kts | 336° |
| 2026-04-23 11:04 | 55.26495 | -3.17908 | 17476 ft | 325 kts | 336° |
| 2026-04-23 11:05 | 55.28596 | -3.19348 | 16942 ft | 324 kts | 343° |
| 2026-04-23 11:05 | 55.30802 | -3.20069 | 16404 ft | 323 kts | 356° |
| 2026-04-23 11:05 | 55.33041 | -3.19952 | 15839 ft | 321 kts | 5° |
| 2026-04-23 11:05 | 55.35258 | -3.19592 | 15280 ft | 319 kts | 5° |
| 2026-04-23 11:06 | 55.39652 | -3.18896 | 14147 ft | 315 kts | 5° |
| 2026-04-23 11:06 | 55.41824 | -3.18562 | 13566 ft | 313 kts | 5° |
| 2026-04-23 11:06 | 55.43985 | -3.18227 | 13024 ft | 310 kts | 5° |
| 2026-04-23 11:07 | 55.46127 | -3.17892 | 12481 ft | 308 kts | 5° |
| 2026-04-23 11:07 | 55.48263 | -3.17555 | 11946 ft | 311 kts | 5° |
| 2026-04-23 11:07 | 55.50412 | -3.17214 | 11577 ft | 306 kts | 5° |
| 2026-04-23 11:07 | 55.52525 | -3.16883 | 10951 ft | 304 kts | 5° |
| 2026-04-23 11:08 | 55.54632 | -3.16554 | 10332 ft | 303 kts | 5° |
| 2026-04-23 11:08 | 55.56713 | -3.16225 | 9761 ft | 297 kts | 5° |
| 2026-04-23 11:08 | 55.58762 | -3.15901 | 9241 ft | 294 kts | 5° |
| 2026-04-23 11:08 | 55.60793 | -3.15578 | 8730 ft | 293 kts | 5° |
| 2026-04-23 11:09 | 55.62820 | -3.15255 | 8116 ft | 293 kts | 5° |
| 2026-04-23 11:09 | 55.64862 | -3.14944 | 7481 ft | 293 kts | 3° |
| 2026-04-23 11:09 | 55.66803 | -3.15366 | 7280 ft | 275 kts | 339° |
| 2026-04-23 11:09 | 55.68391 | -3.17043 | 7020 ft | 259 kts | 313° |
| 2026-04-23 11:10 | 55.69438 | -3.19601 | 6890 ft | 256 kts | 291° |
| 2026-04-23 11:10 | 55.69865 | -3.22592 | 6369 ft | 249 kts | 268° |
| 2026-04-23 11:10 | 55.69622 | -3.25574 | 5840 ft | 243 kts | 249° |
| 2026-04-23 11:10 | 55.69134 | -3.28188 | 5318 ft | 243 kts | 249° |
| 2026-04-23 11:11 | 55.68612 | -3.31035 | 4770 ft | 243 kts | 250° |
| 2026-04-23 11:11 | 55.68096 | -3.33878 | 4286 ft | 241 kts | 250° |
| 2026-04-23 11:11 | 55.67588 | -3.36690 | 4024 ft | 239 kts | 250° |
| 2026-04-23 11:11 | 55.67075 | -3.39507 | 3995 ft | 242 kts | 250° |
| 2026-04-23 11:12 | 55.66556 | -3.42345 | 3998 ft | 242 kts | 250° |
| 2026-04-23 11:12 | 55.66035 | -3.45184 | 3998 ft | 242 kts | 250° |
| 2026-04-23 11:12 | 55.65515 | -3.48023 | 3998 ft | 243 kts | 250° |
| 2026-04-23 11:12 | 55.64995 | -3.50868 | 3992 ft | 241 kts | 251° |
| 2026-04-23 11:13 | 55.64762 | -3.53720 | 3990 ft | 228 kts | 271° |
| 2026-04-23 11:13 | 55.65102 | -3.56415 | 3995 ft | 225 kts | 292° |
| 2026-04-23 11:13 | 55.65947 | -3.58721 | 3991 ft | 222 kts | 314° |
| 2026-04-23 11:13 | 55.67079 | -3.60555 | 4002 ft | 219 kts | 317° |
| 2026-04-23 11:14 | 55.68206 | -3.62367 | 4000 ft | 218 kts | 317° |
| 2026-04-23 11:14 | 55.69332 | -3.64169 | 3996 ft | 218 kts | 319° |
| 2026-04-23 11:14 | 55.70478 | -3.65878 | 4000 ft | 219 kts | 320° |
| 2026-04-23 11:14 | 55.71672 | -3.67604 | 3998 ft | 219 kts | 320° |
| 2026-04-23 11:15 | 55.72839 | -3.69282 | 3998 ft | 219 kts | 320° |
| 2026-04-23 11:15 | 55.74046 | -3.71019 | 4003 ft | 222 kts | 320° |
| 2026-04-23 11:15 | 55.75246 | -3.72755 | 4006 ft | 221 kts | 320° |
| 2026-04-23 11:15 | 55.76393 | -3.74564 | 4005 ft | 221 kts | 319° |
| 2026-04-23 11:16 | 55.77700 | -3.75931 | 3998 ft | 222 kts | 340° |
| 2026-04-23 11:16 | 55.79197 | -3.76414 | 3996 ft | 219 kts | 2° |
| 2026-04-23 11:16 | 55.80687 | -3.75950 | 3997 ft | 218 kts | 23° |
| 2026-04-23 11:16 | 55.81987 | -3.74606 | 4006 ft | 216 kts | 44° |
| 2026-04-23 11:17 | 55.82926 | -3.72575 | 4010 ft | 212 kts | 62° |
| 2026-04-23 11:17 | 55.83693 | -3.70337 | 4007 ft | 212 kts | 62° |
| 2026-04-23 11:17 | 55.84463 | -3.68101 | 3924 ft | 210 kts | 62° |
| 2026-04-23 11:17 | 55.85210 | -3.65931 | 3714 ft | 201 kts | 62° |
| 2026-04-23 11:18 | 55.85924 | -3.63850 | 3439 ft | 193 kts | 60° |
| 2026-04-23 11:18 | 55.86614 | -3.61837 | 3179 ft | 188 kts | 61° |
| 2026-04-23 11:18 | 55.87292 | -3.59857 | 2930 ft | 186 kts | 60° |
| 2026-04-23 11:18 | 55.87950 | -3.57937 | 2709 ft | 173 kts | 60° |
| 2026-04-23 11:19 | 55.88541 | -3.56213 | 2459 ft | 155 kts | 62° |
| 2026-04-23 11:19 | 55.89089 | -3.54607 | 2248 ft | 148 kts | 62° |
| 2026-04-23 11:19 | 55.89616 | -3.53064 | 2048 ft | 144 kts | 61° |
| 2026-04-23 11:19 | 55.90135 | -3.51542 | 1848 ft | 143 kts | 61° |
| 2026-04-23 11:20 | 55.90649 | -3.50036 | 1649 ft | 142 kts | 60° |
| 2026-04-23 11:20 | 55.91160 | -3.48537 | 1457 ft | 140 kts | 60° |
| 2026-04-23 11:20 | 55.91658 | -3.47077 | 1256 ft | 134 kts | 60° |
| 2026-04-23 11:20 | 55.92136 | -3.45659 | 1063 ft | 134 kts | 59° |
| 2026-04-23 11:21 | 55.92612 | -3.44258 | 827 ft | 131 kts | 59° |
| 2026-04-23 11:21 | 55.93084 | -3.42875 | 628 ft | 130 kts | 58° |
| 2026-04-23 11:21 | 55.93561 | -3.41520 | 493 ft | 129 kts | 58° |
| 2026-04-23 11:21 | 55.93859 | -3.40612 | 373 ft | 127 kts | 60° |
| 2026-04-23 11:22 | 55.94317 | -3.39259 | 216 ft | 127 kts | 58° |
| 2026-04-23 11:22 | 55.94783 | -3.37892 | 117 ft | 123 kts | 59° |
| 2026-04-23 11:22 | 55.95139 | -3.36839 | 114 ft | 67 kts | 59° |
| 2026-04-23 11:22 | 55.95262 | -3.36452 | 111 ft | 6 kts | 92° |
| 2026-04-23 11:23 | 55.95225 | -3.36387 | 113 ft | 11 kts | 146° |
| 2026-04-23 11:23 | 55.95157 | -3.36309 | 116 ft | 10 kts | 136° |
| 2026-04-23 11:23 | 55.95126 | -3.36176 | 112 ft | 14 kts | 108° |
| 2026-04-23 11:23 | 55.95091 | -3.35994 | 113 ft | 17 kts | 110° |
| 2026-04-23 11:24 | 55.95028 | -3.35837 | 114 ft | 14 kts | 169° |
| 2026-04-23 11:24 | 55.94931 | -3.35833 | 114 ft | 16 kts | 139° |
| 2026-04-23 11:24 | 55.94884 | -3.35703 | 116 ft | 7 kts | 120° |
| 2026-04-23 11:24 | 55.94843 | -3.35717 | 113 ft | 8 kts | 208° |
| 2026-04-23 11:25 | 55.94811 | -3.35749 | 116 ft | 0 kts | 208° |